aviador You're here:

CYLW Decoded Metar

KELOWNA in BC, CANADA
Report Time2018-02-18 17:00:00
UTC Time2018-02-18 17:53:27
Flight Rules vfr VFR
Wind010° at 16 Gusting to 21 kt
W.Decomp.*RWY 34: 15.7 kt HW 3.3 kt RCW
W.Rank010° ranks 5
Current wind is above 010° avg. (4.6)
Visibility9999 m
Phenomena:N/A
Clouds:Overcast 070 Hf
Expected CloudBase > 2,400 ft AGL from Temp-Dew spread
Ceiling7,000 ft
Temp-6°C (ISA -18)
Dew Point-12°C (63% RH)
AAT-15.0°C
QNH1010 hPa
Density Alt-692 ft
Elevation1,411 ft
Report Wrong Elevation
Raw Report
CYLW 181700Z AUTO 01016G21KT 9SM OVC070 M06/M12 A2984 RMK
SLP130=

Extra information for CYLW:More info

Metar Taf Metar & Taf Last 4 Metars F.Rules Stats Wind Profile Meteogram Temp Stats Airport Information Weather charts Add Link Nearby VenuesMetar ALERT Operation Metar Decoded Social comments